6M8 weather

Marked Tree Municipal Airport
Marked Tree, Arkansas, United States

Public forecast

Using degrees Fahrenheit for public forecast. Weather courtesy of forecast.io.

METAR (pilot weather report)

Closest report is Jonesboro Municipal Airport, 21.5 nm (39.7 km) NW. Retrieved 2019/05/25 19:53 UTC (40 minutes ago):

KJBR 251953Z AUTO 25007G15KT 10SM CLR 33/18 A3008 RMK AO2 SLP182 T03280183 $

TAF (pilot weather forecast)

Closest forecast is Jonesboro Municipal Airport, 21.5 nm (39.7 km) NW. Retrieved 2019/05/25 18:36 UTC (2 hours ago):

TAF KJBR 251733Z 2518/2618 22012G19KT P6SM SCT045 FM260100 20006KT P6SM SKC FM261500 22012G17KT P6SM SCT050